Time;durP1;ratioP1;P1;durP2;ratioP2;P2;SDS_P1;SDS_P2;PMS_P1;PMS_P2;Temp;Humidity;BMP_temperature;BMP_pressure;BME280_temperature;BME280_humidity;BME280_pressure;Samples;Min_cycle;Max_cycle;Signal;HPM_P1;HPM_P2
2021/04/19 00:00:49;;;;;;;423.83;258.98;;;;;;;;;;4995244;28;20117;-77
2021/04/19 00:03:15;;;;;;;432.77;264.23;;;;;;;;;;4980770;28;20038;-76
2021/04/19 00:05:41;;;;;;;456.92;274.73;;;;;;;;;;5000190;28;20022;-77
2021/04/19 00:08:07;;;;;;;427.27;249.48;;;;;;;;;;4985881;28;20022;-77
2021/04/19 00:10:33;;;;;;;420.15;260.15;;;;;;;;;;4983615;28;20034;-77
2021/04/19 00:12:59;;;;;;;436.83;272.67;;;;;;;;;;5000913;28;20049;-77
2021/04/19 00:15:25;;;;;;;427.60;253.13;;;;;;;;;;5009472;28;20026;-77
2021/04/19 00:17:51;;;;;;;425.30;271.45;;;;;;;;;;5004201;28;20080;-77
2021/04/19 00:20:18;;;;;;;431.70;265.85;;;;;;;;;;4998194;28;20030;-76
2021/04/19 00:22:45;;;;;;;413.08;249.00;;;;;;;;;;4997795;28;20050;-77
2021/04/19 00:25:11;;;;;;;419.25;259.00;;;;;;;;;;4990952;28;20079;-77
2021/04/19 00:27:37;;;;;;;420.95;263.40;;;;;;;;;;5003878;28;20496;-78
2021/04/19 00:30:05;;;;;;;439.73;263.25;;;;;;;;;;5003140;28;20450;-77
2021/04/19 00:32:31;;;;;;;429.05;254.15;;;;;;;;;;5010402;28;20156;-77
2021/04/19 00:34:57;;;;;;;401.38;255.10;;;;;;;;;;4987952;28;20109;-77
2021/04/19 00:37:23;;;;;;;409.10;260.83;;;;;;;;;;4985162;28;20413;-77
2021/04/19 00:40:13;;;;;;;405.52;250.68;;;;;;;;;;4989126;28;20180;-77
2021/04/19 00:42:40;;;;;;;405.40;251.13;;;;;;;;;;4991235;28;20413;-77
2021/04/19 00:45:06;;;;;;;403.80;257.67;;;;;;;;;;4994117;28;20034;-77
2021/04/19 00:47:33;;;;;;;402.50;253.25;;;;;;;;;;5002262;28;20189;-77
2021/04/19 00:49:59;;;;;;;393.92;244.60;;;;;;;;;;4982778;28;20362;-77
2021/04/19 00:52:25;;;;;;;395.17;252.30;;;;;;;;;;4989685;28;20031;-77
2021/04/19 00:54:51;;;;;;;384.67;243.98;;;;;;;;;;4982466;28;20026;-77
2021/04/19 00:57:22;;;;;;;394.88;257.50;;;;;;;;;;4989208;28;20025;-77
2021/04/19 00:59:48;;;;;;;389.00;242.77;;;;;;;;;;4991736;28;20060;-77
2021/04/19 01:02:14;;;;;;;395.50;250.27;;;;;;;;;;4999238;28;20026;-77
2021/04/19 01:04:40;;;;;;;389.00;244.63;;;;;;;;;;4990379;28;20037;-77
2021/04/19 01:07:06;;;;;;;389.02;241.65;;;;;;;;;;4985398;28;20088;-77
2021/04/19 01:09:32;;;;;;;395.40;250.48;;;;;;;;;;5001159;28;20370;-77
2021/04/19 01:11:58;;;;;;;389.80;243.50;;;;;;;;;;4981290;28;20034;-77
2021/04/19 01:14:24;;;;;;;381.20;237.77;;;;;;;;;;5000178;28;20525;-77
2021/04/19 01:16:50;;;;;;;386.17;243.70;;;;;;;;;;4989169;28;20044;-77
2021/04/19 01:19:16;;;;;;;388.35;237.75;;;;;;;;;;5000594;28;20050;-77
2021/04/19 01:21:42;;;;;;;393.00;250.55;;;;;;;;;;4980605;28;20080;-77
2021/04/19 01:24:08;;;;;;;378.98;233.30;;;;;;;;;;5001994;28;20537;-76
2021/04/19 01:26:34;;;;;;;380.42;236.55;;;;;;;;;;5006733;28;20082;-78
2021/04/19 01:29:00;;;;;;;388.67;244.85;;;;;;;;;;5001649;28;20030;-77
2021/04/19 01:31:26;;;;;;;384.02;240.43;;;;;;;;;;4989143;28;20084;-77
2021/04/19 01:33:52;;;;;;;386.48;244.93;;;;;;;;;;4985493;28;20140;-78
2021/04/19 01:36:18;;;;;;;385.50;242.23;;;;;;;;;;4986271;28;20026;-77
2021/04/19 01:38:44;;;;;;;381.92;238.88;;;;;;;;;;4987983;28;20114;-77
2021/04/19 01:41:10;;;;;;;384.30;237.55;;;;;;;;;;4991151;28;20466;-77
2021/04/19 01:43:36;;;;;;;382.60;236.88;;;;;;;;;;4982254;28;20042;-77
2021/04/19 01:46:02;;;;;;;380.38;236.63;;;;;;;;;;4986933;28;20516;-77
2021/04/19 01:48:28;;;;;;;382.05;244.45;;;;;;;;;;4990387;28;20663;-78
2021/04/19 01:50:55;;;;;;;384.52;251.00;;;;;;;;;;4988505;28;20022;-78
2021/04/19 01:53:21;;;;;;;386.00;239.57;;;;;;;;;;5002214;28;20041;-78
2021/04/19 01:55:47;;;;;;;384.60;247.60;;;;;;;;;;4980042;28;20084;-78
2021/04/19 01:58:18;;;;;;;396.88;248.65;;;;;;;;;;4980480;28;20034;-78
2021/04/19 02:00:48;;;;;;;379.58;237.77;;;;;;;;;;4982620;28;20031;-78
2021/04/19 02:03:24;;;;;;;380.83;237.35;;;;;;;;;;4982198;28;20031;-78
2021/04/19 02:05:55;;;;;;;380.95;238.15;;;;;;;;;;4998209;28;20026;-78
2021/04/19 02:08:24;;;;;;;385.92;252.57;;;;;;;;;;5000334;28;20465;-78
2021/04/19 02:10:53;;;;;;;385.00;247.55;;;;;;;;;;5004601;28;20640;-78
2021/04/19 02:13:33;;;;;;;381.60;237.07;;;;;;;;;;4989566;28;20034;-78
2021/04/19 02:16:17;;;;;;;383.75;233.25;;;;;;;;;;4980568;28;20481;-78
2021/04/19 02:18:56;;;;;;;381.58;240.27;;;;;;;;;;4981316;28;20030;-78
2021/04/19 02:21:30;;;;;;;378.17;230.88;;;;;;;;;;5000387;28;20046;-78
2021/04/19 02:24:01;;;;;;;382.83;242.45;;;;;;;;;;4997414;28;20032;-77
2021/04/19 02:26:33;;;;;;;381.98;239.80;;;;;;;;;;4981516;28;20026;-78
2021/04/19 02:28:59;;;;;;;387.77;246.13;;;;;;;;;;4994538;28;20105;-78
2021/04/19 02:31:25;;;;;;;391.05;241.23;;;;;;;;;;5000108;28;20106;-77
2021/04/19 02:33:52;;;;;;;379.83;231.13;;;;;;;;;;4985782;28;20666;-78
2021/04/19 02:36:18;;;;;;;382.92;233.02;;;;;;;;;;4988184;28;20029;-77
2021/04/19 02:38:48;;;;;;;385.75;241.50;;;;;;;;;;5004231;28;20034;-78
2021/04/19 02:41:15;;;;;;;396.13;249.40;;;;;;;;;;4999950;28;20034;-77
2021/04/19 02:43:41;;;;;;;384.25;235.32;;;;;;;;;;5002833;28;20053;-78
2021/04/19 02:46:08;;;;;;;411.45;243.50;;;;;;;;;;5001381;28;20033;-78
2021/04/19 02:48:35;;;;;;;402.60;241.75;;;;;;;;;;4998029;28;20471;-78
2021/04/19 02:51:02;;;;;;;409.42;248.40;;;;;;;;;;4988138;28;20030;-78
2021/04/19 02:53:29;;;;;;;415.00;241.43;;;;;;;;;;4986573;28;20026;-77
2021/04/19 02:55:56;;;;;;;413.58;243.98;;;;;;;;;;5002739;28;20045;-78
2021/04/19 02:58:43;;;;;;;424.50;243.00;;;;;;;;;;4990346;28;20037;-78
2021/04/19 03:01:10;;;;;;;429.13;247.55;;;;;;;;;;4989049;28;20033;-77
2021/04/19 03:03:39;;;;;;;430.67;256.23;;;;;;;;;;5005339;28;20065;-77
2021/04/19 03:06:06;;;;;;;425.13;242.90;;;;;;;;;;4985821;28;20029;-78
2021/04/19 03:08:33;;;;;;;416.67;246.05;;;;;;;;;;4992982;28;21636;-78
2021/04/19 03:11:05;;;;;;;411.60;245.63;;;;;;;;;;5001793;28;20026;-78
2021/04/19 03:13:32;;;;;;;399.98;229.05;;;;;;;;;;5003271;28;20019;-77
2021/04/19 03:15:58;;;;;;;395.95;238.90;;;;;;;;;;4986256;28;20450;-78
2021/04/19 03:18:25;;;;;;;397.25;239.48;;;;;;;;;;4987381;28;20034;-78
2021/04/19 03:21:08;;;;;;;396.92;237.38;;;;;;;;;;5005499;28;20022;-78
2021/04/19 03:23:35;;;;;;;399.58;237.10;;;;;;;;;;5007008;28;20096;-77
2021/04/19 03:26:02;;;;;;;397.00;234.32;;;;;;;;;;5001297;28;20034;-77
2021/04/19 03:28:28;;;;;;;405.98;237.63;;;;;;;;;;4979347;28;20471;-77
2021/04/19 03:30:54;;;;;;;411.63;244.38;;;;;;;;;;4996600;28;20019;-77
2021/04/19 03:33:21;;;;;;;399.98;233.45;;;;;;;;;;4990252;28;20034;-78
2021/04/19 03:35:47;;;;;;;412.50;247.95;;;;;;;;;;4985100;28;20028;-78
2021/04/19 03:38:16;;;;;;;404.70;241.98;;;;;;;;;;4989625;28;20414;-77
2021/04/19 03:40:42;;;;;;;402.40;237.98;;;;;;;;;;5004275;28;20037;-77
2021/04/19 03:43:13;;;;;;;405.73;238.00;;;;;;;;;;4986243;28;20050;-77
2021/04/19 03:45:39;;;;;;;414.15;242.63;;;;;;;;;;4988210;28;20489;-78
2021/04/19 03:48:07;;;;;;;410.85;250.00;;;;;;;;;;5006474;28;20023;-78
2021/04/19 03:50:35;;;;;;;404.70;245.73;;;;;;;;;;5003824;28;20045;-77
2021/04/19 03:53:02;;;;;;;406.27;241.63;;;;;;;;;;5000131;28;20774;-78
2021/04/19 03:55:28;;;;;;;397.10;238.25;;;;;;;;;;4980807;28;20054;-78
2021/04/19 03:57:55;;;;;;;408.42;245.68;;;;;;;;;;5001703;28;20562;-77
2021/04/19 04:00:22;;;;;;;395.63;233.07;;;;;;;;;;4994243;28;20042;-77
2021/04/19 04:02:51;;;;;;;405.15;243.27;;;;;;;;;;5002906;28;20053;-78
2021/04/19 04:05:17;;;;;;;396.20;235.20;;;;;;;;;;4985784;28;20022;-77
2021/04/19 04:07:43;;;;;;;405.63;246.70;;;;;;;;;;5000372;28;20324;-78
2021/04/19 04:10:10;;;;;;;408.40;246.05;;;;;;;;;;4987883;28;20030;-78
2021/04/19 04:12:37;;;;;;;395.48;232.70;;;;;;;;;;5003557;28;20113;-78
2021/04/19 04:15:04;;;;;;;401.10;234.15;;;;;;;;;;4988021;28;20023;-78
2021/04/19 04:17:30;;;;;;;401.90;229.55;;;;;;;;;;5005748;28;20375;-78
2021/04/19 04:19:56;;;;;;;414.70;246.63;;;;;;;;;;4982598;28;20040;-77
2021/04/19 04:22:22;;;;;;;405.27;237.82;;;;;;;;;;4998711;28;20034;-78
2021/04/19 04:24:49;;;;;;;400.98;231.85;;;;;;;;;;4989905;28;20097;-78
2021/04/19 04:27:15;;;;;;;396.20;245.73;;;;;;;;;;4987053;28;20058;-78
2021/04/19 04:29:40;;;;;;;395.90;240.50;;;;;;;;;;4987072;28;20072;-78
2021/04/19 04:32:07;;;;;;;395.73;232.77;;;;;;;;;;5006040;28;20454;-77
2021/04/19 04:34:33;;;;;;;397.27;224.63;;;;;;;;;;4987771;28;20062;-78
2021/04/19 04:36:59;;;;;;;405.25;234.55;;;;;;;;;;4984907;28;20111;-78
2021/04/19 04:39:25;;;;;;;412.50;234.20;;;;;;;;;;5002860;28;20034;-78
2021/04/19 04:41:51;;;;;;;442.70;251.27;;;;;;;;;;5002562;28;20363;-78
2021/04/19 04:44:24;;;;;;;421.45;238.20;;;;;;;;;;4981809;28;20080;-78
2021/04/19 04:46:50;;;;;;;416.45;240.77;;;;;;;;;;5002433;28;20465;-78
2021/04/19 04:49:18;;;;;;;436.25;249.65;;;;;;;;;;5004512;28;20107;-78
2021/04/19 04:51:45;;;;;;;445.98;250.45;;;;;;;;;;4988181;28;20023;-78
2021/04/19 04:54:13;;;;;;;466.48;264.13;;;;;;;;;;4999476;28;20533;-77
2021/04/19 04:56:41;;;;;;;480.20;265.50;;;;;;;;;;4994528;28;20038;-77
2021/04/19 04:59:07;;;;;;;471.33;267.98;;;;;;;;;;4983285;28;20673;-78
2021/04/19 05:01:34;;;;;;;452.33;265.08;;;;;;;;;;5005059;28;20396;-78
2021/04/19 05:04:01;;;;;;;450.58;257.63;;;;;;;;;;4979294;28;20100;-78
2021/04/19 05:06:28;;;;;;;456.42;263.25;;;;;;;;;;5003947;28;20097;-78
2021/04/19 05:08:54;;;;;;;442.35;256.35;;;;;;;;;;4986170;28;20026;-78
2021/04/19 05:11:20;;;;;;;444.10;255.15;;;;;;;;;;4984134;28;20394;-78
2021/04/19 05:13:49;;;;;;;429.65;243.70;;;;;;;;;;5002555;28;20038;-78
2021/04/19 05:16:26;;;;;;;430.33;258.77;;;;;;;;;;5001984;28;20101;-79
2021/04/19 05:18:52;;;;;;;434.33;248.15;;;;;;;;;;4982102;28;20030;-79
2021/04/19 05:21:18;;;;;;;429.23;243.15;;;;;;;;;;5001199;28;20022;-78
2021/04/19 05:23:44;;;;;;;424.88;250.77;;;;;;;;;;4984668;28;20037;-78
2021/04/19 05:26:10;;;;;;;417.95;257.88;;;;;;;;;;4989215;28;20030;-78
2021/04/19 05:28:37;;;;;;;418.25;252.38;;;;;;;;;;4987977;28;20054;-78
2021/04/19 05:31:03;;;;;;;427.00;261.67;;;;;;;;;;4997441;28;20035;-79
2021/04/19 05:33:29;;;;;;;413.95;256.25;;;;;;;;;;4986515;28;20034;-79
2021/04/19 05:35:54;;;;;;;407.75;258.88;;;;;;;;;;4985351;28;20037;-79
2021/04/19 05:38:23;;;;;;;399.02;247.75;;;;;;;;;;4988406;28;20128;-79
2021/04/19 05:40:49;;;;;;;393.20;243.90;;;;;;;;;;4982161;28;20034;-79
2021/04/19 05:43:16;;;;;;;397.27;254.38;;;;;;;;;;4990242;28;20406;-79
2021/04/19 05:45:42;;;;;;;398.95;252.70;;;;;;;;;;5001574;28;20104;-79
2021/04/19 05:48:08;;;;;;;396.77;258.90;;;;;;;;;;4999944;28;20028;-79
2021/04/19 05:50:34;;;;;;;397.90;259.08;;;;;;;;;;5002210;28;20080;-78
2021/04/19 05:53:01;;;;;;;397.08;248.18;;;;;;;;;;5002835;28;20023;-79
2021/04/19 05:55:28;;;;;;;396.60;260.27;;;;;;;;;;4979594;28;20434;-79
2021/04/19 05:58:14;;;;;;;394.27;254.68;;;;;;;;;;4998491;28;20113;-80
2021/04/19 06:00:40;;;;;;;396.77;254.23;;;;;;;;;;4983646;28;20053;-78
2021/04/19 06:03:08;;;;;;;396.95;253.35;;;;;;;;;;4978481;28;20034;-78
2021/04/19 06:05:38;;;;;;;394.73;255.15;;;;;;;;;;5003022;28;20076;-78
2021/04/19 06:08:23;;;;;;;409.63;263.88;;;;;;;;;;4998475;28;20029;-78
2021/04/19 06:10:50;;;;;;;396.67;253.55;;;;;;;;;;5001875;28;20092;-79
2021/04/19 06:13:17;;;;;;;397.08;258.05;;;;;;;;;;4980683;28;20022;-79
2021/04/19 06:15:45;;;;;;;409.40;259.50;;;;;;;;;;4983302;28;20409;-79
2021/04/19 06:18:12;;;;;;;404.98;257.55;;;;;;;;;;4997233;28;20026;-80
2021/04/19 06:20:39;;;;;;;409.15;270.45;;;;;;;;;;5003425;28;20032;-79
2021/04/19 06:23:06;;;;;;;409.55;263.88;;;;;;;;;;5004550;28;20030;-78
2021/04/19 06:25:32;;;;;;;401.02;258.48;;;;;;;;;;5002029;28;20610;-79
2021/04/19 06:28:00;;;;;;;401.83;261.05;;;;;;;;;;4982555;28;20057;-79
2021/04/19 06:30:26;;;;;;;412.33;265.67;;;;;;;;;;5016888;28;20029;-79
2021/04/19 06:32:53;;;;;;;406.10;263.45;;;;;;;;;;4994524;28;20018;-79
2021/04/19 06:35:20;;;;;;;410.85;277.60;;;;;;;;;;5006170;28;20025;-80
2021/04/19 06:37:50;;;;;;;406.90;260.90;;;;;;;;;;5001763;28;20607;-83
2021/04/19 06:40:17;;;;;;;419.95;276.25;;;;;;;;;;5013286;28;20075;-81
2021/04/19 06:42:43;;;;;;;407.02;271.27;;;;;;;;;;4982025;28;20089;-79
2021/04/19 06:45:09;;;;;;;410.15;274.30;;;;;;;;;;4985373;28;20032;-80
2021/04/19 06:47:37;;;;;;;405.20;265.25;;;;;;;;;;5001258;28;20022;-79
2021/04/19 06:50:04;;;;;;;451.10;282.02;;;;;;;;;;4991220;28;20025;-81
2021/04/19 06:52:31;;;;;;;444.25;287.77;;;;;;;;;;5013573;28;20483;-80
2021/04/19 06:54:57;;;;;;;429.65;281.40;;;;;;;;;;4983892;28;20113;-80
2021/04/19 06:57:26;;;;;;;440.45;286.25;;;;;;;;;;4982384;28;20034;-81
2021/04/19 06:59:53;;;;;;;428.63;283.58;;;;;;;;;;5001019;28;20042;-81
2021/04/19 07:02:24;;;;;;;428.40;276.75;;;;;;;;;;4989847;28;20390;-80
2021/04/19 07:04:51;;;;;;;438.15;285.20;;;;;;;;;;4990440;28;20101;-80
2021/04/19 07:07:22;;;;;;;451.70;287.00;;;;;;;;;;4991425;28;20398;-80
2021/04/19 07:09:49;;;;;;;432.65;283.77;;;;;;;;;;4991837;28;20093;-80
2021/04/19 07:12:19;;;;;;;441.55;291.10;;;;;;;;;;5016645;28;20034;-80
2021/04/19 07:14:47;;;;;;;476.80;299.02;;;;;;;;;;5002708;28;20114;-80
2021/04/19 07:17:13;;;;;;;465.25;300.23;;;;;;;;;;5002077;28;20063;-82
2021/04/19 07:19:39;;;;;;;456.38;296.98;;;;;;;;;;5001701;28;20030;-82
2021/04/19 07:22:05;;;;;;;457.95;299.48;;;;;;;;;;4989402;28;20497;-80
2021/04/19 07:24:31;;;;;;;466.58;301.63;;;;;;;;;;5003382;28;20087;-80
2021/04/19 07:26:58;;;;;;;456.05;299.85;;;;;;;;;;5019060;28;20087;-76
2021/04/19 07:29:25;;;;;;;433.65;294.83;;;;;;;;;;5019056;28;20030;-78
2021/04/19 07:31:55;;;;;;;518.80;322.15;;;;;;;;;;5001212;28;20022;-77
2021/04/19 07:34:28;;;;;;;509.92;316.95;;;;;;;;;;5017541;28;20057;-78
2021/04/19 07:36:57;;;;;;;477.40;307.08;;;;;;;;;;4992119;28;20030;-79
2021/04/19 07:39:24;;;;;;;515.40;321.30;;;;;;;;;;4989473;28;20026;-80
2021/04/19 07:41:51;;;;;;;445.90;291.70;;;;;;;;;;4991551;28;20763;-79
2021/04/19 07:44:32;;;;;;;440.13;289.33;;;;;;;;;;4994739;28;20037;-78
2021/04/19 07:47:17;;;;;;;444.88;300.20;;;;;;;;;;4997068;28;20124;-77
2021/04/19 07:50:06;;;;;;;421.60;290.00;;;;;;;;;;4982650;28;20049;-79
2021/04/19 07:52:35;;;;;;;416.02;284.65;;;;;;;;;;5012548;28;20022;-75
2021/04/19 07:55:06;;;;;;;423.50;293.38;;;;;;;;;;5001172;28;20110;-76
2021/04/19 07:57:32;;;;;;;420.10;283.45;;;;;;;;;;4979176;28;20030;-77
2021/04/19 07:59:58;;;;;;;430.90;294.40;;;;;;;;;;4990409;28;20033;-78
2021/04/19 08:02:24;;;;;;;437.77;307.92;;;;;;;;;;5001925;28;20100;-79
2021/04/19 08:04:51;;;;;;;439.45;301.65;;;;;;;;;;4992596;28;20037;-76
2021/04/19 08:07:21;;;;;;;432.05;299.10;;;;;;;;;;4997848;28;20401;-79
2021/04/19 08:09:55;;;;;;;424.35;299.58;;;;;;;;;;5016365;28;20110;-77
2021/04/19 08:12:31;;;;;;;425.35;301.00;;;;;;;;;;5011360;28;20025;-78
2021/04/19 08:14:57;;;;;;;421.52;298.55;;;;;;;;;;5012928;28;20021;-79
2021/04/19 08:17:27;;;;;;;426.10;305.13;;;;;;;;;;5006130;28;20595;-82
2021/04/19 08:19:53;;;;;;;433.48;305.88;;;;;;;;;;4994412;28;20470;-79
2021/04/19 08:22:24;;;;;;;404.17;298.30;;;;;;;;;;5012808;28;20060;-76
2021/04/19 08:24:50;;;;;;;436.95;313.30;;;;;;;;;;4988035;28;20121;-77
2021/04/19 08:27:23;;;;;;;465.67;338.52;;;;;;;;;;4979961;28;20120;-81
2021/04/19 08:29:50;;;;;;;413.75;319.20;;;;;;;;;;5006642;28;20034;-78
2021/04/19 08:32:17;;;;;;;411.15;320.02;;;;;;;;;;4997545;28;20049;-79
2021/04/19 08:34:43;;;;;;;532.10;377.60;;;;;;;;;;4994897;28;20045;-81
2021/04/19 08:37:13;;;;;;;479.98;338.80;;;;;;;;;;4994634;28;20030;-81
2021/04/19 08:39:39;;;;;;;396.52;294.33;;;;;;;;;;4997847;28;20030;-79
2021/04/19 08:42:06;;;;;;;395.67;292.35;;;;;;;;;;4997691;28;20088;-79
2021/04/19 08:44:32;;;;;;;392.02;290.38;;;;;;;;;;4977769;28;20429;-80
2021/04/19 08:46:59;;;;;;;394.73;294.30;;;;;;;;;;4992678;28;20068;-76
2021/04/19 08:49:45;;;;;;;400.45;303.85;;;;;;;;;;4993312;28;20037;-78
2021/04/19 08:52:12;;;;;;;396.85;292.20;;;;;;;;;;5001958;28;20022;-80
2021/04/19 08:54:38;;;;;;;400.38;303.05;;;;;;;;;;4993431;28;20018;-79
2021/04/19 08:57:04;;;;;;;392.77;290.75;;;;;;;;;;4978982;28;20081;-78
2021/04/19 08:59:30;;;;;;;404.30;303.20;;;;;;;;;;4979114;28;20505;-79
2021/04/19 09:01:56;;;;;;;396.63;299.20;;;;;;;;;;4977235;28;20023;-79
2021/04/19 09:04:23;;;;;;;395.40;301.55;;;;;;;;;;4980162;28;20034;-79
2021/04/19 09:06:50;;;;;;;395.70;302.45;;;;;;;;;;5025287;28;20230;-78
2021/04/19 09:09:34;;;;;;;398.00;306.15;;;;;;;;;;4999267;28;20065;-79
2021/04/19 09:12:20;;;;;;;392.10;306.95;;;;;;;;;;4990236;28;20026;-80
2021/04/19 09:14:47;;;;;;;394.00;306.65;;;;;;;;;;4987184;28;20094;-78
2021/04/19 09:17:27;;;;;;;400.48;308.95;;;;;;;;;;5008350;28;20053;-77
2021/04/19 09:20:11;;;;;;;394.33;306.92;;;;;;;;;;5002366;28;20365;-78
2021/04/19 09:22:37;;;;;;;398.15;296.80;;;;;;;;;;5001198;28;20068;-81
2021/04/19 09:25:05;;;;;;;396.50;298.00;;;;;;;;;;4990307;28;20036;-78
2021/04/19 09:27:47;;;;;;;398.20;305.02;;;;;;;;;;5012347;28;20018;-78
2021/04/19 09:30:27;;;;;;;406.98;321.88;;;;;;;;;;5000559;28;20127;-78
2021/04/19 09:33:05;;;;;;;396.98;322.63;;;;;;;;;;5012651;28;20547;-81
2021/04/19 09:35:50;;;;;;;393.13;325.60;;;;;;;;;;4997678;28;20026;-77
2021/04/19 09:38:49;;;;;;;393.20;325.17;;;;;;;;;;4977833;28;20374;-75
2021/04/19 09:41:17;;;;;;;385.45;308.85;;;;;;;;;;4976853;28;20117;-77
2021/04/19 09:43:58;;;;;;;389.00;312.77;;;;;;;;;;4994285;28;20528;-81
2021/04/19 09:46:29;;;;;;;390.80;319.70;;;;;;;;;;4986307;28;20034;-78
2021/04/19 09:48:55;;;;;;;388.90;322.55;;;;;;;;;;5012611;28;20470;-75
2021/04/19 09:51:23;;;;;;;389.30;319.58;;;;;;;;;;4995080;28;20022;-74
2021/04/19 09:54:09;;;;;;;382.48;313.50;;;;;;;;;;4996027;28;20017;-74
2021/04/19 09:56:35;;;;;;;395.05;314.05;;;;;;;;;;4991995;28;20487;-76
2021/04/19 09:59:01;;;;;;;393.02;306.13;;;;;;;;;;4987333;28;20073;-79
2021/04/19 10:01:28;;;;;;;390.98;306.52;;;;;;;;;;4997713;28;20038;-78
2021/04/19 10:03:55;;;;;;;396.25;313.35;;;;;;;;;;5009587;28;20455;-78
2021/04/19 10:06:22;;;;;;;393.92;307.13;;;;;;;;;;5008939;28;20521;-78
2021/04/19 10:08:50;;;;;;;391.10;307.92;;;;;;;;;;5008105;28;20026;-79
2021/04/19 10:11:23;;;;;;;395.05;309.92;;;;;;;;;;4994765;28;20028;-77
2021/04/19 10:13:49;;;;;;;388.88;307.48;;;;;;;;;;4995469;28;20460;-78
2021/04/19 10:16:16;;;;;;;395.00;309.05;;;;;;;;;;4989982;28;20030;-78
2021/04/19 10:18:43;;;;;;;398.20;307.17;;;;;;;;;;4990124;28;20030;-78
2021/04/19 10:21:22;;;;;;;390.50;305.83;;;;;;;;;;5001506;28;20083;-77
2021/04/19 10:23:48;;;;;;;394.08;305.65;;;;;;;;;;4990360;28;20030;-79
2021/04/19 10:26:14;;;;;;;401.30;308.92;;;;;;;;;;4993737;28;20437;-77
2021/04/19 10:28:42;;;;;;;397.90;308.67;;;;;;;;;;4993525;28;20022;-77
2021/04/19 10:31:11;;;;;;;393.73;300.70;;;;;;;;;;4982222;28;20066;-78
2021/04/19 10:33:37;;;;;;;392.90;299.90;;;;;;;;;;4974973;28;20026;-78
2021/04/19 10:36:17;;;;;;;398.50;304.98;;;;;;;;;;5003780;28;20479;-75
2021/04/19 10:38:44;;;;;;;398.52;304.40;;;;;;;;;;4995123;28;20021;-78
2021/04/19 10:41:10;;;;;;;399.13;310.90;;;;;;;;;;4988384;28;20041;-80
2021/04/19 10:43:36;;;;;;;395.88;309.45;;;;;;;;;;4975912;28;20057;-77
2021/04/19 10:46:21;;;;;;;398.63;316.80;;;;;;;;;;4996911;28;21717;-77
2021/04/19 10:48:47;;;;;;;397.70;312.88;;;;;;;;;;4988935;28;20042;-77
2021/04/19 10:51:18;;;;;;;401.88;332.48;;;;;;;;;;4991265;28;20042;-78
2021/04/19 10:53:44;;;;;;;406.50;346.70;;;;;;;;;;4991970;28;20026;-75
2021/04/19 10:56:20;;;;;;;409.33;350.42;;;;;;;;;;4999759;28;20022;-77
2021/04/19 10:58:46;;;;;;;413.80;344.77;;;;;;;;;;4992566;28;20038;-79
2021/04/19 11:01:12;;;;;;;414.48;353.67;;;;;;;;;;5012453;28;20535;-76
2021/04/19 11:03:39;;;;;;;417.38;366.17;;;;;;;;;;4994217;28;20068;-79
2021/04/19 11:06:06;;;;;;;437.40;390.52;;;;;;;;;;4985262;28;20034;-77
2021/04/19 11:12:01;;;;;;;461.35;413.92;;;;;;;;;;4995780;28;20493;-76
2021/04/19 11:14:45;;;;;;;466.23;419.40;;;;;;;;;;4979698;28;20037;-75
2021/04/19 11:17:12;;;;;;;456.45;410.15;;;;;;;;;;4996943;28;20422;-74
2021/04/19 11:19:42;;;;;;;456.40;410.70;;;;;;;;;;4998500;28;20401;-79
2021/04/19 11:22:20;;;;;;;447.40;401.92;;;;;;;;;;4998435;28;20026;-77
2021/04/19 11:24:46;;;;;;;417.73;373.13;;;;;;;;;;4996430;28;20026;-79
2021/04/19 11:27:12;;;;;;;409.55;364.80;;;;;;;;;;5004585;28;20037;-79
2021/04/19 11:29:43;;;;;;;417.83;372.52;;;;;;;;;;4992040;28;20501;-76
2021/04/19 11:32:10;;;;;;;409.40;364.88;;;;;;;;;;4979713;28;20026;-80
2021/04/19 11:34:38;;;;;;;402.77;358.45;;;;;;;;;;4988728;28;20033;-81
2021/04/19 11:37:04;;;;;;;407.85;363.02;;;;;;;;;;4984977;28;20026;-80
2021/04/19 11:39:35;;;;;;;;;;;;;;;;;;5005943;28;20026;-78
2021/04/19 11:42:01;;;;;;;405.80;361.15;;;;;;;;;;4988805;28;19921;-79
2021/04/19 11:44:46;;;;;;;418.63;373.63;;;;;;;;;;5008566;28;20029;-77
2021/04/19 11:47:12;;;;;;;442.50;396.70;;;;;;;;;;4991045;28;20029;-82
2021/04/19 11:49:37;;;;;;;452.75;407.25;;;;;;;;;;4989174;28;20026;-77
2021/04/19 11:52:04;;;;;;;446.20;401.17;;;;;;;;;;4992408;28;20029;-79
2021/04/19 11:54:30;;;;;;;437.45;392.50;;;;;;;;;;4986140;28;20022;-77
2021/04/19 11:56:56;;;;;;;436.02;390.50;;;;;;;;;;4983828;28;20030;-77
2021/04/19 11:59:22;;;;;;;444.23;398.58;;;;;;;;;;4999508;28;20113;-76
2021/04/19 12:01:48;;;;;;;457.20;411.73;;;;;;;;;;4986944;28;20034;-79
2021/04/19 12:04:15;;;;;;;466.70;421.25;;;;;;;;;;4996731;28;20441;-77
2021/04/19 12:06:41;;;;;;;465.60;420.50;;;;;;;;;;4982878;28;20414;-77
2021/04/19 12:09:07;;;;;;;469.65;424.23;;;;;;;;;;4987113;28;20022;-78
2021/04/19 12:11:33;;;;;;;457.25;411.92;;;;;;;;;;4990905;28;20030;-75
2021/04/19 12:14:00;;;;;;;451.45;405.80;;;;;;;;;;5005845;28;20022;-76
2021/04/19 12:16:27;;;;;;;455.95;409.80;;;;;;;;;;5006785;28;20021;-78
2021/04/19 12:18:53;;;;;;;470.85;425.02;;;;;;;;;;4981239;28;20486;-79
2021/04/19 12:21:19;;;;;;;491.83;445.95;;;;;;;;;;4986654;28;20026;-78
2021/04/19 12:23:45;;;;;;;507.25;461.00;;;;;;;;;;4987453;28;20556;-79
2021/04/19 12:26:11;;;;;;;519.90;472.75;;;;;;;;;;4989982;28;20023;-78
2021/04/19 12:28:37;;;;;;;554.78;503.83;;;;;;;;;;4992183;28;20033;-77
2021/04/19 12:31:03;;;;;;;515.13;468.05;;;;;;;;;;4990558;28;20022;-79
2021/04/19 12:33:29;;;;;;;486.85;439.83;;;;;;;;;;4991749;28;20531;-77
2021/04/19 12:35:55;;;;;;;471.83;423.60;;;;;;;;;;4977977;28;20022;-77
2021/04/19 12:38:21;;;;;;;495.73;443.67;;;;;;;;;;4974096;28;20046;-77
2021/04/19 12:40:47;;;;;;;497.38;445.63;;;;;;;;;;4974120;28;20579;-76
2021/04/19 12:43:13;;;;;;;481.52;431.38;;;;;;;;;;4993650;28;20053;-81
2021/04/19 12:45:40;;;;;;;474.20;424.65;;;;;;;;;;4977571;28;20056;-77
2021/04/19 12:48:07;;;;;;;455.15;407.00;;;;;;;;;;5013837;28;20033;-77
2021/04/19 12:50:34;;;;;;;451.55;403.13;;;;;;;;;;4997703;28;20057;-77
2021/04/19 12:53:00;;;;;;;445.25;396.63;;;;;;;;;;4997247;28;20060;-80
2021/04/19 12:55:27;;;;;;;443.33;393.10;;;;;;;;;;5001573;28;20031;-78
2021/04/19 12:57:54;;;;;;;424.10;376.70;;;;;;;;;;4991970;28;20030;-80
2021/04/19 13:00:20;;;;;;;420.83;369.55;;;;;;;;;;4995076;28;20061;-74
2021/04/19 13:02:46;;;;;;;417.23;362.58;;;;;;;;;;4993897;28;20026;-79
2021/04/19 13:05:12;;;;;;;422.80;362.92;;;;;;;;;;4972983;28;20121;-77
2021/04/19 13:07:38;;;;;;;415.90;353.98;;;;;;;;;;4982070;28;20023;-78
2021/04/19 13:10:05;;;;;;;418.08;356.52;;;;;;;;;;4975206;28;20108;-79
2021/04/19 13:12:31;;;;;;;416.27;348.83;;;;;;;;;;4991168;28;20026;-76
2021/04/19 13:14:58;;;;;;;417.80;351.88;;;;;;;;;;4986005;28;20075;-78
2021/04/19 13:17:29;;;;;;;416.83;349.25;;;;;;;;;;5007094;28;20034;-78
2021/04/19 13:19:55;;;;;;;446.42;364.40;;;;;;;;;;4996762;28;20528;-77
2021/04/19 13:22:21;;;;;;;513.60;395.45;;;;;;;;;;4974153;28;20389;-79
2021/04/19 13:24:47;;;;;;;478.35;375.73;;;;;;;;;;4993008;28;20022;-82
2021/04/19 13:27:13;;;;;;;487.25;381.70;;;;;;;;;;4993768;28;20034;-79
2021/04/19 13:29:39;;;;;;;504.05;395.70;;;;;;;;;;4982450;28;20544;-79
2021/04/19 13:32:05;;;;;;;507.92;391.23;;;;;;;;;;4993690;28;20017;-76
2021/04/19 13:34:31;;;;;;;476.85;367.90;;;;;;;;;;4974481;28;20042;-85
2021/04/19 13:36:57;;;;;;;468.00;370.35;;;;;;;;;;4982283;28;20066;-79
2021/04/19 13:39:23;;;;;;;461.65;360.48;;;;;;;;;;5008758;28;20037;-80
2021/04/19 13:41:49;;;;;;;481.00;380.60;;;;;;;;;;4980352;28;20069;-80
2021/04/19 13:44:15;;;;;;;468.45;370.38;;;;;;;;;;4983694;28;20030;-78
2021/04/19 13:46:41;;;;;;;473.02;366.30;;;;;;;;;;4988219;28;20076;-78
2021/04/19 13:49:07;;;;;;;476.55;362.73;;;;;;;;;;4976514;28;20060;-81
2021/04/19 13:51:36;;;;;;;465.10;351.33;;;;;;;;;;4984766;28;20057;-78
2021/04/19 13:54:02;;;;;;;471.45;366.92;;;;;;;;;;4985358;28;20014;-80
2021/04/19 13:56:28;;;;;;;452.70;355.35;;;;;;;;;;4977218;28;20030;-78
2021/04/19 13:58:54;;;;;;;452.52;357.90;;;;;;;;;;5000439;28;20040;-81
2021/04/19 14:01:20;;;;;;;460.73;363.15;;;;;;;;;;4982947;28;20065;-80
2021/04/19 14:03:46;;;;;;;450.02;357.60;;;;;;;;;;4999444;28;20030;-78